createdAt,value
2023-04-22T00:00:57.512Z,14.77
2023-04-22T00:03:25.697Z,14.77
2023-04-22T00:05:54.683Z,15.97
2023-04-22T00:08:22.822Z,15.70
2023-04-22T00:10:52.191Z,16.43
2023-04-22T00:13:20.343Z,17.27
2023-04-22T00:15:48.524Z,15.63
2023-04-22T00:18:16.734Z,15.97
2023-04-22T00:20:45.048Z,16.70
2023-04-22T00:23:13.174Z,16.77
2023-04-22T00:25:41.824Z,17.10
2023-04-22T00:28:11.258Z,17.63
2023-04-22T00:30:39.388Z,17.47
2023-04-22T00:33:07.350Z,17.47
2023-04-22T00:35:35.394Z,17.83
2023-04-22T00:38:03.551Z,16.67
2023-04-22T00:40:31.485Z,15.60
2023-04-22T00:43:00.921Z,16.67
2023-04-22T00:45:32.098Z,16.17
2023-04-22T00:48:00.837Z,17.60
2023-04-22T00:50:28.886Z,16.93
2023-04-22T00:52:56.946Z,18.97
2023-04-22T00:55:25.094Z,20.73
2023-04-22T00:57:53.506Z,22.70
2023-04-22T01:00:26.909Z,23.10
2023-04-22T01:02:57.178Z,22.27
2023-04-22T01:05:25.746Z,22.13
2023-04-22T01:07:53.857Z,21.97
2023-04-22T01:10:21.870Z,23.63
2023-04-22T01:12:49.868Z,21.57
2023-04-22T01:15:18.162Z,21.50
2023-04-22T01:17:46.794Z,21.87
2023-04-22T01:20:16.967Z,22.20
2023-04-22T01:22:46.620Z,22.27
2023-04-22T01:25:16.037Z,20.43
2023-04-22T01:27:44.589Z,22.40
2023-04-22T01:30:13.761Z,20.90
2023-04-22T01:32:42.389Z,21.80
2023-04-22T01:35:11.346Z,21.00
2023-04-22T01:37:39.542Z,21.17
2023-04-22T01:40:10.433Z,22.13
2023-04-22T01:42:40.238Z,21.63
2023-04-22T01:45:09.253Z,21.80
2023-04-22T01:47:37.348Z,21.40
2023-04-22T01:50:05.902Z,21.70
2023-04-22T01:52:34.079Z,20.80
2023-04-22T01:55:03.111Z,20.63
2023-04-22T01:57:31.056Z,19.83
2023-04-22T02:00:00.490Z,19.17
2023-04-22T02:02:28.744Z,17.93
2023-04-22T02:04:56.892Z,17.50
2023-04-22T02:07:24.938Z,17.07
2023-04-22T02:09:52.850Z,18.07
2023-04-22T02:12:21.016Z,19.27
2023-04-22T02:14:49.010Z,22.10
2023-04-22T02:17:18.818Z,18.13
2023-04-22T02:19:46.844Z,18.90
2023-04-22T02:22:15.094Z,18.60
2023-04-22T02:24:43.175Z,18.90
2023-04-22T02:27:11.323Z,18.03
2023-04-22T02:29:39.490Z,21.43
2023-04-22T02:32:07.742Z,23.03
2023-04-22T02:34:37.532Z,18.30
2023-04-22T02:37:05.700Z,18.70
2023-04-22T02:39:33.716Z,21.50
2023-04-22T02:42:02.475Z,20.60
2023-04-22T02:44:30.493Z,19.40
2023-04-22T02:46:58.726Z,22.40
2023-04-22T02:49:26.851Z,19.47
2023-04-22T02:51:56.316Z,21.00
2023-04-22T02:54:24.295Z,19.43
2023-04-22T02:56:52.295Z,23.03
2023-04-22T02:59:20.234Z,21.73
2023-04-22T03:01:48.407Z,21.00
2023-04-22T03:04:16.679Z,18.93
2023-04-22T03:06:44.673Z,20.77
2023-04-22T03:09:14.049Z,22.23
2023-04-22T03:11:41.999Z,19.23
2023-04-22T03:14:10.004Z,19.57
2023-04-22T03:16:38.238Z,20.67
2023-04-22T03:19:06.502Z,20.27
2023-04-22T03:21:34.528Z,25.90
2023-04-22T03:24:02.500Z,25.03
2023-04-22T03:26:31.795Z,22.37
2023-04-22T03:28:59.744Z,24.03
2023-04-22T03:31:27.727Z,25.03
2023-04-22T03:33:55.708Z,28.77
2023-04-22T03:36:23.625Z,25.73
2023-04-22T03:38:51.699Z,27.47
2023-04-22T03:41:19.711Z,26.47
2023-04-22T03:43:49.110Z,26.33
2023-04-22T03:46:17.290Z,21.40
2023-04-22T03:48:45.374Z,22.47
2023-04-22T03:51:13.457Z,27.10
2023-04-22T03:53:41.417Z,26.83
2023-04-22T03:56:09.445Z,29.50
2023-04-22T03:58:37.428Z,29.97
2023-04-22T04:01:06.862Z,38.60
2023-04-22T04:03:35.081Z,31.27
2023-04-22T04:06:03.496Z,23.57
2023-04-22T04:08:31.591Z,22.47
2023-04-22T04:10:59.573Z,22.70
2023-04-22T04:13:32.368Z,20.27
2023-04-22T04:16:01.570Z,22.40
2023-04-22T04:18:30.993Z,21.87
2023-04-22T04:20:58.971Z,25.80
2023-04-22T04:23:27.269Z,23.03
2023-04-22T04:25:55.783Z,21.83
2023-04-22T04:28:24.472Z,23.10
2023-04-22T04:30:53.695Z,20.37
2023-04-22T04:33:21.809Z,20.13
2023-04-22T04:35:51.604Z,17.83
2023-04-22T04:38:19.726Z,16.60
2023-04-22T04:40:48.003Z,17.27
2023-04-22T04:43:15.973Z,16.97
2023-04-22T04:45:48.485Z,15.57
2023-04-22T04:48:17.591Z,16.07
2023-04-22T04:50:47.215Z,18.77
2023-04-22T04:53:16.567Z,15.30
2023-04-22T04:55:44.587Z,16.63
2023-04-22T04:58:12.711Z,15.40
2023-04-22T05:00:40.785Z,15.00
2023-04-22T05:03:08.904Z,20.77
2023-04-22T05:05:37.587Z,19.97
2023-04-22T05:08:05.704Z,20.43
2023-04-22T05:10:35.238Z,15.67
2023-04-22T05:13:04.427Z,20.23
2023-04-22T05:15:32.669Z,17.03
2023-04-22T05:18:00.797Z,15.07
2023-04-22T05:20:28.846Z,14.37
2023-04-22T05:22:56.764Z,13.63
2023-04-22T05:25:24.698Z,15.67
2023-04-22T05:27:54.182Z,17.33
2023-04-22T05:30:22.301Z,18.00
2023-04-22T05:32:50.361Z,19.47
2023-04-22T05:35:18.600Z,16.00
2023-04-22T05:37:46.517Z,20.08
2023-04-22T05:40:14.516Z,25.20
2023-04-22T05:42:42.511Z,19.50
2023-04-22T05:45:12.829Z,16.20
2023-04-22T05:47:40.970Z,15.60
2023-04-22T05:50:09.962Z,15.68
2023-04-22T05:52:39.042Z,15.75
2023-04-22T05:55:08.329Z,17.38
2023-04-22T05:57:36.421Z,15.05
2023-04-22T06:00:05.136Z,16.95
2023-04-22T06:02:34.816Z,24.55
2023-04-22T06:05:03.120Z,16.10
2023-04-22T06:07:31.525Z,16.73
2023-04-22T06:10:05.135Z,20.52
2023-04-22T06:12:34.795Z,20.38
2023-04-22T06:15:02.829Z,15.73
2023-04-22T06:17:30.923Z,20.23
2023-04-22T06:20:00.408Z,13.90
2023-04-22T06:22:28.453Z,13.98
2023-04-22T06:24:56.450Z,13.80
2023-04-22T06:27:25.754Z,14.88
2023-04-22T06:29:53.742Z,14.50
2023-04-22T06:32:21.874Z,14.80
2023-04-22T06:34:52.531Z,11.27
2023-04-22T06:37:21.816Z,11.80
2023-04-22T06:39:49.926Z,10.25
2023-04-22T06:42:18.247Z,16.40
2023-04-22T06:44:46.191Z,13.48
2023-04-22T06:47:14.242Z,12.48
2023-04-22T06:49:43.272Z,11.57
2023-04-22T06:52:11.933Z,13.43
2023-04-22T06:54:41.303Z,13.48
2023-04-22T06:57:09.440Z,15.10
2023-04-22T06:59:37.767Z,13.93
2023-04-22T07:02:06.909Z,14.13
2023-04-22T07:04:35.200Z,13.68
2023-04-22T07:07:03.714Z,15.15
2023-04-22T07:09:31.739Z,16.95
2023-04-22T07:12:01.360Z,10.80
2023-04-22T07:14:29.334Z,10.98
2023-04-22T07:16:57.428Z,12.00
2023-04-22T07:19:27.111Z,13.20
2023-04-22T07:21:55.383Z,10.80
2023-04-22T07:24:23.709Z,10.82
2023-04-22T07:26:51.846Z,12.48
2023-04-22T07:29:21.239Z,12.48
2023-04-22T07:31:49.247Z,10.10
2023-04-22T07:34:19.298Z,10.77
2023-04-22T07:36:47.467Z,11.50
2023-04-22T07:39:15.707Z,13.68
2023-04-22T07:41:43.605Z,8.63
2023-04-22T07:44:16.485Z,8.93
2023-04-22T07:46:45.953Z,9.30
2023-04-22T07:49:14.374Z,12.30
2023-04-22T07:51:42.638Z,7.60
2023-04-22T07:54:10.660Z,7.43
2023-04-22T07:56:38.668Z,7.43
2023-04-22T07:59:07.131Z,7.43
2023-04-22T08:01:35.068Z,7.10
2023-04-22T08:04:04.583Z,8.32
2023-04-22T08:06:33.081Z,7.63
2023-04-22T08:09:01.097Z,7.53
2023-04-22T08:11:29.116Z,9.43
2023-04-22T08:13:57.286Z,7.90
2023-04-22T08:16:25.459Z,8.05
2023-04-22T08:18:53.794Z,8.73
2023-04-22T08:21:23.221Z,8.98
2023-04-22T08:23:52.188Z,9.73
2023-04-22T08:26:20.430Z,8.00
2023-04-22T08:28:48.809Z,8.75
2023-04-22T08:31:16.840Z,7.72
2023-04-22T08:33:44.862Z,9.82
2023-04-22T08:36:12.988Z,7.50
2023-04-22T08:38:42.623Z,10.45
2023-04-22T08:41:12.049Z,10.05
2023-04-22T08:43:40.204Z,7.93
2023-04-22T08:46:08.338Z,9.48
2023-04-22T08:48:38.127Z,7.45
2023-04-22T08:51:07.944Z,10.30
2023-04-22T08:53:36.063Z,8.63
2023-04-22T08:56:07.074Z,6.85
2023-04-22T08:58:35.728Z,7.05
2023-04-22T09:01:04.762Z,7.78
2023-04-22T09:03:33.159Z,8.02
2023-04-22T09:06:04.563Z,8.00
2023-04-22T09:08:33.595Z,9.57
2023-04-22T09:11:01.640Z,6.45
2023-04-22T09:13:31.250Z,6.18
2023-04-22T09:16:00.103Z,7.10
2023-04-22T09:18:28.135Z,7.25
2023-04-22T09:20:57.577Z,7.65
2023-04-22T09:23:26.284Z,7.57
2023-04-22T09:25:54.286Z,9.05
2023-04-22T09:28:22.320Z,6.78
2023-04-22T09:30:51.732Z,7.57
2023-04-22T09:33:19.749Z,9.55
2023-04-22T09:36:10.024Z,6.85
2023-04-22T09:38:38.987Z,7.90
2023-04-22T09:41:11.365Z,8.93
2023-04-22T09:43:39.642Z,11.88
2023-04-22T09:46:11.479Z,8.80
2023-04-22T09:48:44.111Z,8.00
2023-04-22T09:51:19.237Z,9.55
2023-04-22T09:53:59.313Z,9.05
2023-04-22T09:56:54.332Z,8.27
2023-04-22T09:59:23.550Z,6.10
2023-04-22T10:01:54.201Z,7.70
2023-04-22T10:04:23.387Z,6.30
2023-04-22T10:06:52.736Z,4.13
2023-04-22T10:09:23.030Z,4.07
2023-04-22T10:11:52.853Z,3.92
2023-04-22T10:14:21.538Z,4.68
2023-04-22T10:16:50.883Z,4.22
2023-04-22T10:19:22.430Z,7.90
2023-04-22T10:21:55.061Z,3.53
2023-04-22T10:24:23.179Z,4.47
2023-04-22T10:26:53.058Z,3.13
2023-04-22T10:29:23.410Z,5.30
2023-04-22T10:31:57.340Z,4.68
2023-04-22T10:34:26.977Z,2.95
2023-04-22T10:36:56.726Z,2.70
2023-04-22T10:39:26.547Z,3.67
2023-04-22T10:41:58.227Z,4.32
2023-04-22T10:44:30.727Z,4.82
2023-04-22T10:47:00.577Z,4.53
2023-04-22T10:49:32.633Z,3.65
2023-04-22T10:52:01.653Z,4.82
2023-04-22T10:54:58.608Z,4.15
2023-04-22T10:57:37.534Z,6.80
2023-04-22T11:00:42.147Z,4.97
2023-04-22T11:03:17.074Z,5.22
2023-04-22T11:05:47.084Z,3.70
2023-04-22T11:08:24.329Z,6.95
2023-04-22T11:10:54.152Z,4.40
2023-04-22T11:13:23.206Z,5.28
2023-04-22T11:15:54.208Z,4.47
2023-04-22T11:18:23.477Z,4.70
2023-04-22T11:20:53.800Z,5.10
2023-04-22T11:23:25.063Z,3.60
2023-04-22T11:25:57.757Z,2.95
2023-04-22T11:28:25.972Z,2.40
2023-04-22T11:30:54.583Z,4.25
2023-04-22T11:33:22.771Z,3.13
2023-04-22T11:35:52.757Z,2.40
2023-04-22T11:38:20.919Z,4.93
2023-04-22T11:40:49.158Z,3.17
2023-04-22T11:43:18.709Z,2.90
2023-04-22T11:45:46.934Z,4.65
2023-04-22T11:48:16.789Z,4.47
2023-04-22T11:50:45.254Z,6.78
2023-04-22T11:53:19.367Z,3.22
2023-04-22T11:55:51.039Z,4.35
2023-04-22T11:58:25.003Z,3.20
2023-04-22T12:00:54.725Z,3.47
2023-04-22T12:03:24.758Z,2.88
2023-04-22T12:05:54.957Z,3.72
2023-04-22T12:08:26.189Z,3.25
2023-04-22T12:10:56.006Z,4.80
2023-04-22T12:13:25.299Z,4.38
2023-04-22T12:15:56.565Z,4.05
2023-04-22T12:18:49.383Z,5.03
2023-04-22T12:21:20.632Z,3.67
2023-04-22T12:23:53.455Z,3.60
2023-04-22T12:26:26.391Z,4.60
2023-04-22T12:28:56.303Z,3.75
2023-04-22T12:31:24.689Z,6.55
2023-04-22T12:33:52.976Z,7.93
2023-04-22T12:36:22.071Z,5.70
2023-04-22T12:38:51.779Z,4.78
2023-04-22T12:41:20.053Z,4.53
2023-04-22T12:43:48.411Z,4.75
2023-04-22T12:46:16.497Z,3.80
2023-04-22T12:48:44.496Z,5.22
2023-04-22T12:51:12.447Z,3.63
2023-04-22T12:53:40.538Z,3.28
2023-04-22T12:56:10.057Z,3.58
2023-04-22T12:58:37.998Z,4.97
2023-04-22T13:01:06.264Z,3.35
2023-04-22T13:03:34.431Z,3.28
2023-04-22T13:06:02.518Z,2.30
2023-04-22T13:08:30.910Z,4.10
2023-04-22T13:11:00.278Z,2.70
2023-04-22T13:13:29.781Z,3.88
2023-04-22T13:15:57.863Z,4.97
2023-04-22T13:18:25.845Z,4.85
2023-04-22T13:20:55.155Z,3.35
2023-04-22T13:23:23.436Z,3.65
2023-04-22T13:25:51.841Z,2.75
2023-04-22T13:28:20.073Z,5.93
2023-04-22T13:30:49.751Z,4.80
2023-04-22T13:33:17.797Z,8.40
2023-04-22T13:35:46.710Z,9.93
2023-04-22T13:38:14.725Z,9.93
2023-04-22T13:40:42.825Z,16.15
2023-04-22T13:43:11.087Z,10.18
2023-04-22T13:45:40.114Z,3.05
2023-04-22T13:48:09.575Z,4.95
2023-04-22T13:50:37.507Z,4.00
2023-04-22T13:53:09.967Z,3.40
2023-04-22T13:55:38.097Z,2.87
2023-04-22T13:58:07.685Z,6.57
2023-04-22T14:00:36.087Z,4.73
2023-04-22T14:03:04.379Z,6.03
2023-04-22T14:05:33.967Z,4.77
2023-04-22T14:08:02.142Z,3.87
2023-04-22T14:10:30.093Z,3.10
2023-04-22T14:12:58.129Z,3.40
2023-04-22T14:15:26.091Z,3.33
2023-04-22T14:17:54.934Z,3.57
2023-04-22T14:20:25.134Z,3.50
2023-04-22T14:22:54.787Z,3.77
2023-04-22T14:25:22.835Z,4.37
2023-04-22T14:27:50.993Z,3.60
2023-04-22T14:30:20.429Z,7.67
2023-04-22T14:32:48.453Z,7.00
2023-04-22T14:35:16.458Z,4.10
2023-04-22T14:37:45.233Z,4.20
2023-04-22T14:40:14.928Z,4.63
2023-04-22T14:42:42.908Z,6.57
2023-04-22T14:45:11.895Z,5.23
2023-04-22T14:47:40.010Z,4.17
2023-04-22T14:50:08.818Z,3.83
2023-04-22T14:52:36.842Z,9.47
2023-04-22T14:55:15.584Z,3.80
2023-04-22T14:57:54.340Z,3.47
2023-04-22T15:00:22.541Z,7.03
2023-04-22T15:02:51.212Z,4.30
2023-04-22T15:05:19.429Z,4.00
2023-04-22T15:07:47.351Z,4.73
2023-04-22T15:10:16.886Z,4.00
2023-04-22T15:12:45.725Z,6.03
2023-04-22T15:15:16.226Z,5.10
2023-04-22T15:17:44.793Z,6.50
2023-04-22T15:20:14.145Z,5.70
2023-04-22T15:22:43.043Z,3.37
2023-04-22T15:25:11.933Z,6.73
2023-04-22T15:27:40.237Z,4.77
2023-04-22T15:30:11.067Z,7.13
2023-04-22T15:32:43.694Z,4.20
2023-04-22T15:35:12.831Z,4.40
2023-04-22T15:37:42.167Z,6.90
2023-04-22T15:40:10.708Z,3.50
2023-04-22T15:42:38.694Z,5.37
2023-04-22T15:45:08.067Z,5.93
2023-04-22T15:47:36.933Z,3.80
2023-04-22T15:50:09.489Z,8.57
2023-04-22T15:52:38.909Z,5.87
2023-04-22T15:55:07.789Z,7.00
2023-04-22T15:57:36.226Z,3.90
2023-04-22T16:00:11.834Z,5.00
2023-04-22T16:02:41.481Z,6.87
2023-04-22T16:05:11.896Z,7.27
2023-04-22T16:07:40.425Z,6.27
2023-04-22T16:10:10.243Z,6.57
2023-04-22T16:12:38.186Z,5.97
2023-04-22T16:15:07.962Z,5.40
2023-04-22T16:17:36.206Z,5.90
2023-04-22T16:20:06.193Z,7.40
2023-04-22T16:22:35.598Z,4.90
2023-04-22T16:25:04.295Z,5.93
2023-04-22T16:27:32.544Z,5.13
2023-04-22T16:30:00.551Z,4.90
2023-04-22T16:32:28.632Z,3.80
2023-04-22T16:34:56.984Z,6.03
2023-04-22T16:37:25.028Z,5.53
2023-04-22T16:39:54.556Z,4.60
2023-04-22T16:42:22.510Z,5.10
2023-04-22T16:44:51.599Z,5.10
2023-04-22T16:47:19.717Z,4.17
2023-04-22T16:49:47.912Z,6.83
2023-04-22T16:52:16.202Z,4.07
2023-04-22T16:54:44.158Z,5.60
2023-04-22T16:57:13.646Z,5.37
2023-04-22T16:59:41.924Z,5.60
2023-04-22T17:02:10.483Z,4.90
2023-04-22T17:04:38.975Z,4.43
2023-04-22T17:07:09.409Z,4.27
2023-04-22T17:09:37.362Z,5.47
2023-04-22T17:12:06.255Z,5.23
2023-04-22T17:14:35.620Z,6.53
2023-04-22T17:17:03.596Z,4.33
2023-04-22T17:19:31.596Z,4.17
2023-04-22T17:22:01.697Z,5.53
2023-04-22T17:24:30.652Z,4.83
2023-04-22T17:26:58.714Z,4.90
2023-04-22T17:29:26.960Z,5.77
2023-04-22T17:31:56.605Z,5.43
2023-04-22T17:34:24.624Z,5.17
2023-04-22T17:36:54.143Z,5.40
2023-04-22T17:39:23.361Z,12.00
2023-04-22T17:41:51.339Z,7.07
2023-04-22T17:44:19.274Z,6.00
2023-04-22T17:46:47.317Z,6.87
2023-04-22T17:49:16.806Z,6.30
2023-04-22T17:51:44.910Z,6.83
2023-04-22T17:54:12.943Z,5.37
2023-04-22T17:56:40.999Z,5.40
2023-04-22T17:59:11.311Z,7.30
2023-04-22T18:01:39.940Z,6.60
2023-04-22T18:04:08.222Z,5.43
2023-04-22T18:06:40.693Z,5.50
2023-04-22T18:09:08.696Z,6.17
2023-04-22T18:11:37.305Z,5.83
2023-04-22T18:14:05.784Z,5.97
2023-04-22T18:16:33.704Z,6.10
2023-04-22T18:19:04.118Z,6.70
2023-04-22T18:21:32.717Z,5.87
2023-04-22T18:24:03.803Z,6.67
2023-04-22T18:26:32.400Z,6.03
2023-04-22T18:29:00.523Z,6.37
2023-04-22T18:31:29.162Z,7.00
2023-04-22T18:36:41.716Z,9.77
2023-04-22T18:39:11.478Z,9.33
2023-04-22T18:41:40.199Z,7.33
2023-04-22T18:44:08.184Z,7.70
2023-04-22T18:46:36.346Z,8.03
2023-04-22T18:49:04.645Z,8.97
2023-04-22T18:51:33.260Z,6.90
2023-04-22T18:54:01.550Z,7.20
2023-04-22T18:56:32.956Z,6.77
2023-04-22T18:59:01.016Z,8.23
2023-04-22T19:01:29.585Z,7.10
2023-04-22T19:04:01.656Z,5.67
2023-04-22T19:06:29.978Z,7.03
2023-04-22T19:08:58.105Z,5.20
2023-04-22T19:11:26.317Z,5.53
2023-04-22T19:13:55.747Z,7.00
2023-04-22T19:16:26.189Z,4.77
2023-04-22T19:18:54.724Z,5.10
2023-04-22T19:21:22.811Z,4.57
2023-04-22T19:23:53.072Z,4.90
2023-04-22T19:26:22.224Z,4.00
2023-04-22T19:28:50.367Z,4.80
2023-04-22T19:31:19.862Z,5.10
2023-04-22T19:33:48.579Z,4.53
2023-04-22T19:36:16.749Z,4.87
2023-04-22T19:38:45.020Z,4.70
2023-04-22T19:41:13.668Z,6.23
2023-04-22T19:43:42.113Z,5.40
2023-04-22T19:46:10.110Z,5.00
2023-04-22T19:48:40.304Z,6.67
2023-04-22T19:51:11.092Z,6.97
2023-04-22T19:53:42.085Z,6.27
2023-04-22T19:56:10.366Z,6.40
2023-04-22T19:58:39.693Z,6.77
2023-04-22T20:01:09.083Z,7.30
2023-04-22T20:03:39.412Z,7.50
2023-04-22T20:06:08.340Z,6.33
2023-04-22T20:08:41.866Z,6.33
2023-04-22T20:11:11.600Z,7.00
2023-04-22T20:13:40.576Z,6.93
2023-04-22T20:16:09.673Z,7.13
2023-04-22T20:18:39.477Z,7.90
2023-04-22T20:21:08.325Z,7.87
2023-04-22T20:23:36.905Z,8.33
2023-04-22T20:26:05.072Z,8.57
2023-04-22T20:28:44.971Z,9.17
2023-04-22T20:31:13.635Z,9.83
2023-04-22T20:33:43.170Z,8.43
2023-04-22T20:36:11.786Z,6.07
2023-04-22T20:38:40.512Z,6.20
2023-04-22T20:41:10.128Z,6.77
2023-04-22T20:43:38.070Z,9.13
2023-04-22T20:46:06.737Z,9.33
2023-04-22T20:48:34.794Z,6.13
2023-04-22T20:51:04.202Z,5.77
2023-04-22T20:53:32.189Z,6.33
2023-04-22T20:56:00.158Z,7.83
2023-04-22T20:58:28.286Z,5.20
2023-04-22T21:00:56.857Z,7.13
2023-04-22T21:03:28.651Z,5.70
2023-04-22T21:05:59.246Z,6.67
2023-04-22T21:08:29.340Z,6.43
2023-04-22T21:10:57.925Z,5.93
2023-04-22T21:13:26.488Z,7.40
2023-04-22T21:15:58.976Z,5.97
2023-04-22T21:18:27.750Z,5.07
2023-04-22T21:20:57.447Z,5.63
2023-04-22T21:23:25.806Z,5.20
2023-04-22T21:25:56.296Z,4.77
2023-04-22T21:28:24.851Z,5.07
2023-04-22T21:30:53.502Z,5.00
2023-04-22T21:33:21.602Z,4.80
2023-04-22T21:35:49.752Z,6.60
2023-04-22T21:38:17.773Z,7.63
2023-04-22T21:40:45.779Z,7.47
2023-04-22T21:43:15.255Z,8.60
2023-04-22T21:45:43.206Z,7.13
2023-04-22T21:48:11.390Z,5.20
2023-04-22T21:50:39.387Z,7.87
2023-04-22T21:53:08.021Z,6.27
2023-04-22T21:55:36.159Z,5.40
2023-04-22T21:58:04.380Z,5.87
2023-04-22T22:00:33.812Z,6.20
2023-04-22T22:03:03.395Z,5.90
2023-04-22T22:05:31.911Z,5.63
2023-04-22T22:07:59.919Z,6.20
2023-04-22T22:10:28.141Z,6.13
2023-04-22T22:12:56.360Z,7.57
2023-04-22T22:15:24.657Z,6.03
2023-04-22T22:17:54.024Z,5.80
2023-04-22T22:20:22.245Z,6.40
2023-04-22T22:22:50.242Z,6.67
2023-04-22T22:25:18.381Z,7.83
2023-04-22T22:27:47.327Z,8.27
2023-04-22T22:30:16.189Z,7.20
2023-04-22T22:32:45.876Z,5.50
2023-04-22T22:35:16.501Z,6.53
2023-04-22T22:37:45.261Z,5.53
2023-04-22T22:40:14.076Z,6.20
2023-04-22T22:42:42.095Z,6.43
2023-04-22T22:45:10.952Z,7.07
2023-04-22T22:47:40.835Z,6.03
2023-04-22T22:50:09.888Z,5.47
2023-04-22T22:52:39.294Z,5.80
2023-04-22T22:55:08.253Z,5.97
2023-04-22T22:57:36.238Z,6.17
2023-04-22T23:00:05.979Z,6.53
2023-04-22T23:02:34.071Z,7.40
2023-04-22T23:05:02.373Z,5.63
2023-04-22T23:07:30.396Z,6.27
2023-04-22T23:09:59.828Z,6.57
2023-04-22T23:12:27.845Z,5.80
2023-04-22T23:14:56.013Z,6.13
2023-04-22T23:17:24.084Z,6.23
2023-04-22T23:19:53.374Z,6.07
2023-04-22T23:22:21.432Z,6.37
2023-04-22T23:24:49.851Z,6.43
2023-04-22T23:27:20.380Z,10.40
2023-04-22T23:29:48.905Z,5.60
2023-04-22T23:32:20.773Z,6.20
2023-04-22T23:34:50.934Z,5.80
2023-04-22T23:37:20.675Z,6.27
2023-04-22T23:39:48.703Z,6.67
2023-04-22T23:42:16.687Z,7.63
2023-04-22T23:44:46.395Z,6.37
2023-04-22T23:47:14.680Z,8.50
2023-04-22T23:49:42.825Z,5.87
2023-04-22T23:52:13.168Z,8.27
2023-04-22T23:54:41.941Z,8.30
2023-04-22T23:57:10.777Z,9.50
2023-04-22T23:59:39.439Z,9.37
